Time;durP1;ratioP1;P1;durP2;ratioP2;P2;SDS_P1;SDS_P2;PMS_P1;PMS_P2;Temp;Humidity;BMP_temperature;BMP_pressure;BME280_temperature;BME280_humidity;BME280_pressure;Samples;Min_cycle;Max_cycle;Signal;HPM_P1;HPM_P2
2022/01/03 00:01:07;;;;;;;26.95;5.30;;;;;;;9.60;81.14;101119.72;5053141;28;20033;-65
2022/01/03 00:03:33;;;;;;;25.58;5.07;;;;;;;9.59;80.92;101121.53;5050346;28;20056;-65
2022/01/03 00:05:58;;;;;;;20.48;4.38;;;;;;;9.57;80.81;101122.56;5055894;28;20009;-66
2022/01/03 00:08:24;;;;;;;17.65;4.75;;;;;;;9.54;80.99;101118.34;5049562;28;20021;-64
2022/01/03 00:10:51;;;;;;;21.50;5.10;;;;;;;9.53;81.01;101137.00;5058377;28;20048;-65
2022/01/03 00:13:19;;;;;;;24.40;4.53;;;;;;;9.50;81.21;101130.09;5050881;28;20038;-64
2022/01/03 00:15:44;;;;;;;25.08;4.97;;;;;;;9.49;81.01;101135.50;5057141;28;20024;-67
2022/01/03 00:18:09;;;;;;;23.42;4.88;;;;;;;9.50;80.69;101130.09;5056522;28;20033;-67
2022/01/03 00:20:34;;;;;;;22.00;5.20;;;;;;;9.49;80.93;101138.97;5050247;28;20043;-66
2022/01/03 00:23:06;;;;;;;24.30;4.80;;;;;;;9.47;81.04;101135.59;5058268;28;20037;-65
2022/01/03 00:25:36;;;;;;;24.38;5.00;;;;;;;9.47;80.79;101148.84;5051197;28;20033;-65
2022/01/03 00:28:30;;;;;;;29.25;5.63;;;;;;;9.49;81.22;101146.09;5052348;28;20018;-65
2022/01/03 00:30:57;;;;;;;22.95;5.60;;;;;;;9.47;80.76;101153.31;5057017;28;20035;-66
2022/01/03 00:33:24;;;;;;;27.63;4.85;;;;;;;9.49;80.53;101160.19;5050265;28;20030;-65
2022/01/03 00:35:54;;;;;;;20.63;4.63;;;;;;;9.49;80.53;101165.50;5050182;28;20028;-65
2022/01/03 00:38:21;;;;;;;26.40;5.18;;;;;;;9.49;80.60;101151.41;5056569;28;20029;-64
2022/01/03 00:40:47;;;;;;;20.98;5.32;;;;;;;9.50;80.69;101150.47;5057416;28;20030;-66
2022/01/03 00:43:15;;;;;;;35.67;5.75;;;;;;;9.51;80.27;101144.19;5053412;28;20029;-66
2022/01/03 00:45:41;;;;;;;19.60;4.75;;;;;;;9.52;80.03;101144.09;5055975;28;20089;-65
2022/01/03 00:48:08;;;;;;;22.25;5.00;;;;;;;9.53;79.88;101139.66;5056129;28;20009;-65
2022/01/03 00:50:33;;;;;;;23.25;5.22;;;;;;;9.51;80.24;101137.09;5055993;28;20025;-64
2022/01/03 00:52:58;;;;;;;25.88;5.22;;;;;;;9.53;79.24;101134.34;5053193;28;20048;-67
2022/01/03 00:55:24;;;;;;;22.98;5.15;;;;;;;9.54;79.52;101136.03;5053102;28;20022;-66
2022/01/03 00:58:02;;;;;;;24.75;5.32;;;;;;;9.54;79.11;101138.69;5035841;28;20026;-65
2022/01/03 01:00:31;;;;;;;22.38;5.80;;;;;;;9.55;78.90;101151.84;5045343;28;20116;-65
2022/01/03 01:03:10;;;;;;;23.90;5.65;;;;;;;9.56;79.16;101140.28;5047404;28;20013;-65
2022/01/03 01:05:38;;;;;;;24.13;5.10;;;;;;;9.54;79.77;101136.03;5040692;28;20025;-66
2022/01/03 01:08:05;;;;;;;28.30;6.03;;;;;;;9.54;79.39;101128.06;5045979;28;20026;-65
2022/01/03 01:10:34;;;;;;;25.15;5.13;;;;;;;9.51;79.59;101138.88;5037000;28;20076;-65
2022/01/03 01:13:01;;;;;;;21.33;5.50;;;;;;;9.51;79.78;101145.06;5041193;28;20034;-66
2022/01/03 01:15:27;;;;;;;26.77;4.97;;;;;;;9.50;79.74;101143.34;5048296;28;20055;-67
2022/01/03 01:17:54;;;;;;;25.67;5.53;;;;;;;9.50;79.71;101145.16;5044356;28;20036;-65
2022/01/03 01:20:20;;;;;;;21.05;4.90;;;;;;;9.49;79.99;101152.25;5039956;28;20065;-65
2022/01/03 01:22:47;;;;;;;22.42;5.50;;;;;;;9.48;80.27;101147.06;5038685;28;20024;-66
2022/01/03 01:27:48;;;;;;;22.52;5.28;;;;;;;9.45;80.55;101148.94;5037943;28;20076;-66
2022/01/03 01:30:16;;;;;;;23.95;5.68;;;;;;;9.44;80.30;101163.19;5043472;28;20017;-65
2022/01/03 01:32:45;;;;;;;25.88;5.50;;;;;;;9.43;80.15;101163.28;5042142;28;20072;-65
2022/01/03 01:35:10;;;;;;;;;;;;;;;9.47;80.68;101167.41;5052759;28;20017;-65
2022/01/03 01:37:39;;;;;;;31.88;6.05;;;;;;;9.41;80.23;101168.69;5047180;28;20146;-66
2022/01/03 01:40:05;;;;;;;;;;;;;;;9.45;80.47;101178.13;5053620;28;20053;-67
2022/01/03 01:42:31;;;;;;;26.73;5.38;;;;;;;9.40;80.46;101177.56;5040123;28;19909;-64
2022/01/03 01:44:59;;;;;;;25.27;5.43;;;;;;;9.36;80.66;101162.84;5049336;28;20056;-65
2022/01/03 01:47:27;;;;;;;26.47;5.47;;;;;;;9.36;80.26;101184.06;5057512;28;20446;-66
2022/01/03 01:49:55;;;;;;;26.85;5.88;;;;;;;9.35;80.59;101171.72;5056576;28;20083;-65
2022/01/03 01:52:23;;;;;;;27.17;6.00;;;;;;;9.33;80.51;101168.34;5048504;28;20040;-66
2022/01/03 01:54:58;;;;;;;26.20;5.28;;;;;;;9.31;80.58;101178.19;5058848;28;20085;-65
2022/01/03 01:57:48;;;;;;;30.67;5.40;;;;;;;9.28;80.81;101178.41;5053673;28;20121;-65
2022/01/03 02:00:15;;;;;;;26.73;5.40;;;;;;;9.24;80.87;101177.75;5050235;28;20057;-65
2022/01/03 02:02:43;;;;;;;27.30;4.80;;;;;;;9.23;80.78;101177.84;5055858;28;20074;-65
2022/01/03 02:05:39;;;;;;;24.15;4.95;;;;;;;9.19;81.21;101176.34;5050287;28;20037;-65
2022/01/03 02:08:37;;;;;;;28.10;5.82;;;;;;;9.10;81.31;101171.66;5053797;28;20057;-65
2022/01/03 02:11:18;;;;;;;27.88;4.82;;;;;;;9.13;81.27;101179.41;5050592;28;20037;-65
2022/01/03 02:13:44;;;;;;;27.73;5.05;;;;;;;9.12;81.27;101178.53;5042738;28;20126;-64
2022/01/03 02:16:10;;;;;;;25.23;5.05;;;;;;;9.08;81.47;101191.16;5041754;28;20065;-66
2022/01/03 02:18:35;;;;;;;22.55;5.30;;;;;;;9.05;81.37;101186.03;5051198;28;20025;-66
2022/01/03 02:21:03;;;;;;;26.17;5.03;;;;;;;9.05;81.53;101185.19;5046571;28;20073;-67
2022/01/03 02:23:28;;;;;;;24.67;5.10;;;;;;;9.04;81.69;101184.34;5040051;28;20026;-67
2022/01/03 02:25:53;;;;;;;23.30;4.57;;;;;;;9.01;81.46;101187.19;5039965;28;20045;-65
2022/01/03 02:28:22;;;;;;;26.08;4.53;;;;;;;9.01;81.54;101187.19;5042251;28;20081;-66
2022/01/03 02:30:49;;;;;;;23.52;4.40;;;;;;;8.99;81.77;101188.22;5048034;28;20026;-65
2022/01/03 02:33:14;;;;;;;20.73;4.72;;;;;;;8.95;81.47;101184.09;5055416;28;20080;-67
2022/01/03 02:35:41;;;;;;;23.85;5.18;;;;;;;8.93;81.77;101189.50;5050084;28;20009;-66
2022/01/03 02:38:07;;;;;;;23.02;4.78;;;;;;;8.92;81.78;101187.78;5045487;28;20068;-66
2022/01/03 02:40:32;;;;;;;25.05;4.60;;;;;;;8.91;81.85;101190.53;5042944;28;20026;-66
2022/01/03 02:42:58;;;;;;;23.80;5.13;;;;;;;8.89;82.15;101188.84;5051161;28;20060;-66
2022/01/03 02:45:25;;;;;;;25.70;4.85;;;;;;;8.89;81.83;101196.78;5059201;28;20029;-66
2022/01/03 02:47:52;;;;;;;20.20;5.05;;;;;;;8.88;82.05;101188.94;5050722;28;20033;-65
2022/01/03 02:50:20;;;;;;;22.23;4.80;;;;;;;8.89;82.32;101193.28;5057666;28;20057;-64
2022/01/03 02:52:46;;;;;;;29.20;5.63;;;;;;;8.88;82.11;101176.53;5051839;28;20101;-66
2022/01/03 02:55:12;;;;;;;23.85;4.82;;;;;;;8.88;82.24;101181.84;5056570;28;20045;-66
2022/01/03 02:57:40;;;;;;;23.42;4.75;;;;;;;8.89;82.13;101182.66;5057249;28;20040;-66
2022/01/03 03:00:10;;;;;;;23.90;5.55;;;;;;;8.87;82.44;101184.56;5067690;28;20036;-66
2022/01/03 03:02:35;;;;;;;26.38;5.63;;;;;;;8.88;82.23;101187.13;5047933;28;20033;-66
2022/01/03 03:05:03;;;;;;;25.05;4.95;;;;;;;8.86;82.44;101194.34;5057828;28;20014;-67
2022/01/03 03:07:30;;;;;;;24.55;4.93;;;;;;;8.87;82.30;101195.16;5053799;28;20048;-66
2022/01/03 03:09:56;;;;;;;28.05;4.97;;;;;;;8.87;82.55;101195.16;5057212;28;20034;-66
2022/01/03 03:12:23;;;;;;;22.83;4.68;;;;;;;8.86;82.53;101191.69;5056712;28;20029;-66
2022/01/03 03:14:48;;;;;;;27.10;5.15;;;;;;;8.86;82.55;101196.13;5055398;28;20032;-67
2022/01/03 03:17:14;;;;;;;27.35;4.95;;;;;;;8.87;82.73;101196.00;5052272;28;20041;-65
2022/01/03 03:20:11;;;;;;;29.85;5.43;;;;;;;8.89;82.69;101193.28;5056941;28;20041;-67
2022/01/03 03:22:37;;;;;;;22.50;4.55;;;;;;;8.86;82.52;101186.38;5033230;28;20091;-67
2022/01/03 03:25:09;;;;;;;25.55;4.88;;;;;;;8.86;82.55;101185.53;5049210;28;20025;-66
2022/01/03 03:27:42;;;;;;;27.13;5.90;;;;;;;8.87;82.59;101190.72;5053307;28;20077;-67
2022/01/03 03:30:10;;;;;;;26.73;5.13;;;;;;;8.89;82.78;101199.44;5046731;28;20100;-67
2022/01/03 03:32:36;;;;;;;29.85;5.10;;;;;;;8.91;82.87;101199.34;5056578;28;20018;-67
2022/01/03 03:35:01;;;;;;;26.90;4.65;;;;;;;8.94;82.89;101196.47;5048091;28;20068;-66
2022/01/03 03:37:27;;;;;;;21.58;4.10;;;;;;;8.95;83.06;101189.41;5051707;28;20048;-66
2022/01/03 03:39:52;;;;;;;30.02;5.40;;;;;;;8.96;83.15;101202.53;5056570;28;20024;-66
2022/01/03 03:42:19;;;;;;;26.80;5.15;;;;;;;8.96;83.46;101197.25;5053976;28;20037;-66
2022/01/03 03:44:45;;;;;;;28.05;4.53;;;;;;;8.99;83.06;101194.41;5054897;28;20407;-66
2022/01/03 03:47:10;;;;;;;23.92;5.25;;;;;;;9.00;83.28;101184.66;5055059;28;20097;-66
2022/01/03 03:49:36;;;;;;;30.25;4.70;;;;;;;8.98;83.02;101190.03;5042851;28;20046;-67
2022/01/03 03:52:02;;;;;;;31.45;4.82;;;;;;;8.99;83.15;101183.81;5053976;28;20065;-66
2022/01/03 03:54:31;;;;;;;32.13;5.55;;;;;;;8.97;82.92;101183.03;5055089;28;20036;-65
2022/01/03 03:56:57;;;;;;;28.75;5.20;;;;;;;8.97;83.01;101182.19;5048954;28;20033;-66
2022/01/03 03:59:24;;;;;;;22.90;4.57;;;;;;;8.93;83.16;101178.91;5054546;28;20021;-66
2022/01/03 04:01:50;;;;;;;26.77;5.30;;;;;;;8.94;82.87;101183.22;5054063;28;20036;-66
2022/01/03 04:04:15;;;;;;;28.90;5.18;;;;;;;8.94;82.98;101188.53;5052413;28;20017;-66
2022/01/03 04:06:41;;;;;;;27.92;6.18;;;;;;;8.94;82.88;101183.22;5043928;28;20034;-66
2022/01/03 04:09:06;;;;;;;23.13;5.18;;;;;;;8.94;82.97;101179.72;5053227;28;20025;-66
2022/01/03 04:11:31;;;;;;;26.30;5.28;;;;;;;8.92;83.06;101166.59;5055138;28;20040;-66
2022/01/03 04:13:57;;;;;;;24.73;4.55;;;;;;;8.93;83.15;101173.59;5046991;28;20033;-66
2022/01/03 04:16:22;;;;;;;30.75;6.07;;;;;;;8.93;83.06;101164.81;5053448;28;20033;-66
2022/01/03 04:18:47;;;;;;;31.67;5.32;;;;;;;8.95;82.99;101177.00;5049050;28;20037;-65
2022/01/03 04:21:13;;;;;;;30.15;5.95;;;;;;;8.96;83.23;101175.19;5053163;28;20030;-66
2022/01/03 04:23:38;;;;;;;34.20;5.70;;;;;;;8.96;82.83;101157.50;5053117;28;20037;-66
2022/01/03 04:26:04;;;;;;;28.42;5.35;;;;;;;8.95;83.08;101161.09;5051582;28;20064;-66
2022/01/03 04:28:30;;;;;;;24.55;4.82;;;;;;;8.99;82.89;101161.75;5051752;28;20034;-66
2022/01/03 04:30:56;;;;;;;29.20;5.28;;;;;;;9.00;82.81;101153.69;5050432;28;20033;-68
2022/01/03 04:33:21;;;;;;;23.65;5.25;;;;;;;9.03;82.73;101165.91;5039379;28;20079;-65
2022/01/03 04:35:46;;;;;;;29.73;5.50;;;;;;;9.01;82.58;101159.84;5051877;28;20047;-67
2022/01/03 04:38:11;;;;;;;26.65;4.78;;;;;;;9.03;82.78;101160.59;5050307;28;20052;-65
2022/01/03 04:40:37;;;;;;;26.33;4.97;;;;;;;9.02;82.96;101167.69;5043035;28;20048;-66
2022/01/03 04:43:03;;;;;;;21.98;4.65;;;;;;;9.04;82.85;101157.00;5048207;28;20124;-65
2022/01/03 04:45:28;;;;;;;36.17;5.93;;;;;;;9.05;82.79;101167.50;5047207;28;20085;-65
2022/01/03 04:47:54;;;;;;;32.67;5.57;;;;;;;9.05;82.97;101162.19;5045911;28;20143;-66
2022/01/03 04:50:19;;;;;;;31.95;5.70;;;;;;;9.08;82.67;101155.84;5047411;28;20087;-66
2022/01/03 04:52:44;;;;;;;25.90;5.68;;;;;;;9.07;82.76;101154.16;5046171;28;20056;-66
2022/01/03 04:55:10;;;;;;;25.42;5.15;;;;;;;9.06;82.90;101148.00;5050936;28;20035;-65
2022/01/03 04:57:35;;;;;;;29.25;5.20;;;;;;;9.06;82.80;101155.94;5040673;28;20069;-64
2022/01/03 05:00:00;;;;;;;27.17;4.97;;;;;;;9.07;82.59;101154.97;5044567;28;20021;-65
2022/01/03 05:02:26;;;;;;;23.85;4.97;;;;;;;9.11;82.43;101152.13;5038065;28;20048;-66
2022/01/03 05:04:51;;;;;;;29.42;4.60;;;;;;;9.12;82.56;101151.19;5047662;28;20040;-67
2022/01/03 05:07:16;;;;;;;27.48;4.72;;;;;;;9.13;82.54;101148.44;5037118;28;20037;-66
2022/01/03 05:09:42;;;;;;;34.63;5.63;;;;;;;9.13;82.52;101153.75;5047192;28;20030;-65
2022/01/03 05:12:07;;;;;;;34.80;6.05;;;;;;;9.16;82.52;101155.34;5046286;28;20036;-65
2022/01/03 05:14:33;;;;;;;27.73;5.50;;;;;;;9.15;82.87;101157.16;5040820;28;20030;-65
2022/01/03 05:16:58;;;;;;;28.48;4.68;;;;;;;9.15;82.67;101138.59;5049947;28;20048;-65
2022/01/03 05:19:26;;;;;;;27.95;5.45;;;;;;;9.16;82.56;101136.78;5038764;28;20036;-65
2022/01/03 05:21:52;;;;;;;21.60;4.70;;;;;;;9.13;82.54;101129.06;5048626;28;20037;-66
2022/01/03 05:24:18;;;;;;;27.02;5.18;;;;;;;9.13;82.48;101140.50;5036895;28;20293;-66
2022/01/03 05:26:43;;;;;;;25.65;5.38;;;;;;;9.11;82.61;101137.13;5045338;28;20032;-65
2022/01/03 05:29:09;;;;;;;26.98;5.45;;;;;;;9.11;82.81;101128.28;5044557;28;20185;-64
2022/01/03 05:31:34;;;;;;;31.50;5.13;;;;;;;9.09;82.67;101139.00;5046914;28;20033;-65
2022/01/03 05:34:00;;;;;;;29.27;5.43;;;;;;;9.10;82.69;101135.41;5043179;28;20117;-65
2022/01/03 05:36:26;;;;;;;24.90;5.10;;;;;;;9.10;82.88;101121.31;5049008;28;20082;-66
2022/01/03 05:38:52;;;;;;;24.58;5.68;;;;;;;9.10;82.43;101123.97;5039079;28;20029;-65
2022/01/03 05:41:17;;;;;;;22.95;4.43;;;;;;;9.11;82.41;101121.22;5046793;28;20144;-66
2022/01/03 05:43:42;;;;;;;23.88;4.60;;;;;;;9.11;82.25;101128.28;5034847;28;20096;-64
2022/01/03 05:46:08;;;;;;;34.55;4.68;;;;;;;9.12;82.14;101122.06;5047331;28;20025;-65
2022/01/03 05:48:33;;;;;;;21.63;4.38;;;;;;;9.13;82.08;101124.59;5034444;28;20037;-66
2022/01/03 05:50:58;;;;;;;26.92;5.03;;;;;;;9.12;82.41;101111.44;5043112;28;20085;-66
2022/01/03 05:53:24;;;;;;;22.88;4.57;;;;;;;9.12;82.28;101116.75;5046332;28;20030;-65
2022/01/03 05:55:49;;;;;;;26.10;5.05;;;;;;;9.09;82.23;101107.19;5050011;28;20029;-66
2022/01/03 05:58:15;;;;;;;26.38;4.68;;;;;;;9.08;82.38;101111.66;5049129;28;20052;-65
2022/01/03 06:00:42;;;;;;;21.80;4.45;;;;;;;9.10;82.21;101113.38;5031269;28;20100;-66
2022/01/03 06:03:07;;;;;;;28.17;5.15;;;;;;;9.07;82.51;101114.41;5029599;28;20591;-66
2022/01/03 06:08:05;;;;;;;31.08;4.57;;;;;;;9.03;82.74;101110.28;5043864;28;20097;-64
2022/01/03 06:10:30;;;;;;;24.52;4.63;;;;;;;9.02;82.94;101111.22;5039849;28;20176;-65
2022/01/03 06:12:56;;;;;;;20.80;3.60;;;;;;;9.00;82.75;101100.72;5046831;28;20491;-65
2022/01/03 06:15:24;;;;;;;26.48;4.75;;;;;;;8.98;83.14;101107.91;5047871;28;20029;-65
2022/01/03 06:17:50;;;;;;;28.48;4.57;;;;;;;8.98;83.22;101107.06;5046298;28;20052;-66
2022/01/03 06:20:15;;;;;;;21.92;4.30;;;;;;;8.95;83.36;101100.16;5043456;28;20030;-65
2022/01/03 06:22:41;;;;;;;26.98;4.88;;;;;;;8.94;83.42;101095.81;5049896;28;20098;-67
2022/01/03 06:25:08;;;;;;;26.20;5.15;;;;;;;8.92;83.72;101107.47;5045580;28;20030;-63
2022/01/03 06:27:33;;;;;;;31.63;5.28;;;;;;;8.89;83.56;101112.03;5049133;28;20428;-65
2022/01/03 06:29:59;;;;;;;21.00;4.25;;;;;;;8.88;83.85;101102.38;5037976;28;20065;-65
2022/01/03 06:32:24;;;;;;;23.80;4.60;;;;;;;8.87;83.54;101092.72;5048713;28;20033;-66
2022/01/03 06:34:52;;;;;;;31.77;4.47;;;;;;;8.85;83.86;101101.72;5049476;28;20044;-66
2022/01/03 06:37:18;;;;;;;28.48;4.40;;;;;;;8.85;83.98;101099.06;5037000;28;20017;-66
2022/01/03 06:39:43;;;;;;;25.40;4.47;;;;;;;8.85;84.57;101104.38;5043449;28;20085;-67
2022/01/03 06:42:08;;;;;;;25.13;4.75;;;;;;;8.83;85.47;101111.56;5046496;28;20041;-66
2022/01/03 06:44:33;;;;;;;30.50;4.70;;;;;;;8.80;86.00;101109.13;5041946;28;20041;-65
2022/01/03 06:46:59;;;;;;;23.25;4.32;;;;;;;8.77;86.51;101104.84;5042776;28;20045;-66
2022/01/03 06:49:24;;;;;;;19.33;3.75;;;;;;;8.75;87.02;101103.28;5052031;28;20056;-66
2022/01/03 06:51:49;;;;;;;21.38;4.55;;;;;;;8.73;87.47;101095.44;5038767;28;20093;-67
2022/01/03 06:54:14;;;;;;;23.30;4.72;;;;;;;8.70;87.60;101096.47;5038821;28;20048;-67
2022/01/03 06:56:41;;;;;;;20.67;3.90;;;;;;;8.67;88.04;101098.47;5041842;28;20037;-66
2022/01/03 06:59:06;;;;;;;19.02;4.43;;;;;;;8.66;88.34;101100.28;5050708;28;20075;-67
2022/01/03 07:01:31;;;;;;;19.63;4.07;;;;;;;8.65;88.68;101101.22;5065843;28;20106;-65
2022/01/03 07:03:57;;;;;;;19.17;3.65;;;;;;;8.65;88.62;101103.00;5035674;28;20024;-67
2022/01/03 07:06:22;;;;;;;19.70;4.15;;;;;;;8.63;88.67;101102.28;5049528;28;20013;-66
2022/01/03 07:08:48;;;;;;;24.15;4.60;;;;;;;8.61;88.63;101094.44;5048643;28;20033;-67
2022/01/03 07:11:13;;;;;;;24.40;4.70;;;;;;;8.61;88.66;101093.56;5054383;28;20096;-67
2022/01/03 07:13:46;;;;;;;20.85;4.15;;;;;;;8.60;88.63;101089.22;5050006;28;20074;-66
2022/01/03 07:18:56;;;;;;;22.30;3.75;;;;;;;8.59;88.68;101085.69;5035725;28;20053;-65
2022/01/03 07:21:22;;;;;;;17.27;4.03;;;;;;;8.57;88.71;101086.78;5064232;28;20074;-65
2022/01/03 07:23:48;;;;;;;20.58;4.10;;;;;;;8.57;88.51;101090.25;5051906;28;20030;-67
2022/01/03 07:26:13;;;;;;;28.73;4.35;;;;;;;8.57;88.34;101084.97;5055533;28;20056;-66
2022/01/03 07:28:38;;;;;;;24.08;4.22;;;;;;;8.57;88.41;101092.06;5040849;28;20097;-65
2022/01/03 07:31:04;;;;;;;16.02;3.92;;;;;;;8.54;87.89;101092.25;5052873;28;20073;-67
2022/01/03 07:33:29;;;;;;;17.65;3.88;;;;;;;8.54;88.08;101095.75;5055988;28;20040;-65
2022/01/03 07:35:54;;;;;;;17.25;3.40;;;;;;;8.52;88.00;101103.78;5035935;28;20505;-67
2022/01/03 07:38:19;;;;;;;21.60;4.10;;;;;;;8.51;88.13;101090.66;5037818;28;20068;-65
2022/01/03 07:40:45;;;;;;;25.20;4.13;;;;;;;8.49;87.89;101093.41;5038440;28;20057;-66
2022/01/03 07:43:10;;;;;;;18.95;3.85;;;;;;;8.50;88.03;101097.75;5039756;28;20034;-65
2022/01/03 07:45:36;;;;;;;22.05;4.28;;;;;;;8.49;88.14;101096.06;5037425;28;20054;-66
2022/01/03 07:48:01;;;;;;;21.08;4.03;;;;;;;8.51;87.40;101099.47;5040392;28;20026;-68
2022/01/03 07:50:26;;;;;;;20.40;3.85;;;;;;;8.51;87.96;101094.16;5035663;28;20046;-66
2022/01/03 07:52:52;;;;;;;19.65;4.28;;;;;;;8.56;87.87;101107.09;5058743;28;20014;-66
2022/01/03 07:55:19;;;;;;;19.10;3.63;;;;;;;8.56;87.99;101112.41;5046283;28;20048;-65
2022/01/03 07:57:45;;;;;;;23.77;4.45;;;;;;;8.58;87.77;101115.78;5046307;28;20042;-67
2022/01/03 08:00:14;;;;;;;19.50;3.72;;;;;;;8.59;87.70;101121.94;5040236;28;20475;-67
2022/01/03 08:02:41;;;;;;;;;;;;;;;8.63;87.36;101116.34;5049383;28;20037;-66
2022/01/03 08:05:12;;;;;;;24.13;4.68;;;;;;;8.63;87.30;101108.41;5050487;28;19991;-66
2022/01/03 08:07:38;;;;;;;23.92;4.10;;;;;;;8.64;87.13;101101.31;5052255;28;20040;-68
2022/01/03 08:10:05;;;;;;;22.52;4.57;;;;;;;8.66;86.93;101102.03;5055917;28;20064;-67
2022/01/03 08:12:31;;;;;;;19.10;4.13;;;;;;;8.64;86.72;101099.53;5053060;28;20128;-64
2022/01/03 08:14:56;;;;;;;22.17;4.57;;;;;;;8.65;86.75;101103.84;5038565;28;20115;-63
2022/01/03 08:17:21;;;;;;;20.58;3.75;;;;;;;8.64;86.78;101115.41;5042573;28;20101;-66
2022/01/03 08:19:47;;;;;;;23.65;4.72;;;;;;;8.66;86.65;101110.00;5052526;28;20064;-66
2022/01/03 08:22:12;;;;;;;21.92;4.50;;;;;;;8.67;86.64;101103.75;5064627;28;20057;-65
2022/01/03 08:24:37;;;;;;;23.17;4.57;;;;;;;8.67;86.44;101103.75;5043028;28;20048;-67
2022/01/03 08:27:03;;;;;;;25.58;4.57;;;;;;;8.67;86.53;101104.59;5044258;28;20037;-67
2022/01/03 08:29:28;;;;;;;22.17;4.75;;;;;;;8.69;86.39;101104.50;5037603;28;20033;-65
2022/01/03 08:31:53;;;;;;;23.23;4.63;;;;;;;8.70;86.65;101108.84;5053988;28;20100;-66
2022/01/03 08:34:19;;;;;;;23.55;4.45;;;;;;;8.71;86.43;101089.38;5044756;28;20040;-65
2022/01/03 08:36:44;;;;;;;22.13;4.22;;;;;;;8.73;86.27;101091.91;5053523;28;20040;-65
2022/01/03 08:39:10;;;;;;;22.70;4.25;;;;;;;8.76;86.03;101102.31;5050796;28;20029;-65
2022/01/03 08:41:35;;;;;;;26.33;4.70;;;;;;;8.75;86.39;101095.31;5045410;28;20040;-65
2022/01/03 08:44:01;;;;;;;20.48;3.80;;;;;;;8.77;86.25;101088.13;5033581;28;20033;-65
2022/01/03 08:46:26;;;;;;;18.20;4.40;;;;;;;8.79;86.08;101092.38;5054653;28;20056;-67
2022/01/03 08:48:53;;;;;;;23.35;4.05;;;;;;;8.83;85.86;101099.16;5037653;28;20502;-66
2022/01/03 08:51:19;;;;;;;24.33;4.63;;;;;;;8.83;86.04;101116.88;5049384;28;20040;-66
2022/01/03 08:53:44;;;;;;;26.17;4.70;;;;;;;8.84;86.43;101119.41;5045027;28;20034;-66
2022/01/03 08:56:09;;;;;;;27.45;4.45;;;;;;;8.86;86.08;101116.69;5044407;28;20124;-66
2022/01/03 08:58:35;;;;;;;21.80;5.03;;;;;;;8.86;86.16;101125.47;5051835;28;20032;-66
2022/01/03 09:01:00;;;;;;;22.85;4.53;;;;;;;8.86;86.15;101120.16;5062370;28;20032;-67
2022/01/03 09:03:25;;;;;;;21.20;4.05;;;;;;;8.89;86.18;101127.03;5044919;28;20046;-66
2022/01/03 09:05:53;;;;;;;22.40;4.28;;;;;;;8.91;86.10;101124.28;5050030;28;20025;-65
2022/01/03 09:08:19;;;;;;;26.88;5.15;;;;;;;8.94;85.72;101117.00;5038435;28;20066;-66
2022/01/03 09:10:44;;;;;;;27.55;4.55;;;;;;;8.97;85.63;101105.38;5046205;28;20033;-65
2022/01/03 09:13:10;;;;;;;27.38;5.45;;;;;;;9.02;85.74;101112.03;5038660;28;20029;-67
2022/01/03 09:15:37;;;;;;;26.63;5.13;;;;;;;9.09;85.59;101109.84;5032294;28;20038;-67
2022/01/03 09:18:03;;;;;;;25.60;3.97;;;;;;;9.14;85.27;101110.38;5029333;28;20037;-66
2022/01/03 09:20:29;;;;;;;26.80;4.63;;;;;;;9.20;84.69;101109.16;5039997;28;20036;-68
2022/01/03 09:23:01;;;;;;;22.63;3.97;;;;;;;9.23;84.60;101101.84;5041944;28;20037;-66
2022/01/03 09:30:52;;;;;;;22.27;4.25;;;;;;;9.29;83.80;101103.22;5040559;28;20048;-66
2022/01/03 09:33:18;;;;;;;26.08;4.05;;;;;;;9.30;84.02;101096.13;5047134;28;20088;-65
2022/01/03 09:35:44;;;;;;;27.63;5.03;;;;;;;9.31;83.63;101088.06;5048797;28;20038;-66
2022/01/03 09:38:10;;;;;;;20.50;4.40;;;;;;;9.31;83.47;101077.47;5034616;28;20025;-65
2022/01/03 09:40:37;;;;;;;20.88;4.38;;;;;;;9.32;83.60;101073.00;5032483;28;20041;-67
2022/01/03 09:43:03;;;;;;;22.95;5.45;;;;;;;9.34;83.73;101084.34;5014625;28;20024;-65
2022/01/03 09:45:34;;;;;;;22.52;3.80;;;;;;;9.34;83.42;101084.34;5013720;28;20105;-66
2022/01/03 09:48:01;;;;;;;24.80;4.47;;;;;;;9.36;83.61;101090.41;5017883;28;20026;-66
2022/01/03 09:50:30;;;;;;;22.92;4.72;;;;;;;9.38;83.58;101083.22;5025025;28;20100;-67
2022/01/03 09:52:57;;;;;;;24.77;4.97;;;;;;;9.39;83.84;101084.88;5014972;28;20088;-67
2022/01/03 09:55:23;;;;;;;25.25;4.35;;;;;;;9.41;83.63;101098.91;5021724;28;20084;-67
2022/01/03 09:57:49;;;;;;;25.10;6.00;;;;;;;9.42;83.48;101084.69;5016058;28;20116;-67
2022/01/03 10:00:18;;;;;;;23.13;4.78;;;;;;;9.42;82.88;101076.72;5015845;28;20408;-67
2022/01/03 10:02:45;;;;;;;26.27;5.57;;;;;;;9.43;83.13;101081.94;5018136;28;20101;-67
2022/01/03 10:05:10;;;;;;;24.52;5.13;;;;;;;9.44;82.88;101082.78;5019871;28;20066;-68
2022/01/03 10:07:38;;;;;;;22.60;4.30;;;;;;;9.43;83.05;101086.41;5025227;28;20018;-66
2022/01/03 10:10:04;;;;;;;21.30;4.00;;;;;;;9.44;83.10;101072.16;5024560;28;20026;-69
2022/01/03 10:12:30;;;;;;;22.00;3.90;;;;;;;9.44;82.90;101075.69;5027575;28;20026;-66
2022/01/03 10:14:58;;;;;;;24.08;4.65;;;;;;;9.47;82.99;101076.44;5046365;28;20037;-66
2022/01/03 10:17:24;;;;;;;20.45;3.67;;;;;;;9.49;83.29;101078.00;5039403;28;20064;-65
2022/01/03 10:19:58;;;;;;;22.20;4.13;;;;;;;9.50;83.20;101078.88;5032284;28;20335;-69
2022/01/03 10:22:27;;;;;;;22.65;4.40;;;;;;;9.54;82.91;101085.66;5028339;28;20091;-68
2022/01/03 10:24:53;;;;;;;24.17;5.00;;;;;;;9.55;83.07;101090.84;5015580;28;20053;-68
2022/01/03 10:27:20;;;;;;;21.02;4.22;;;;;;;9.58;82.98;101084.50;5016110;28;20172;-69
2022/01/03 10:29:57;;;;;;;25.95;4.60;;;;;;;9.61;83.06;101076.34;5008676;28;20022;-68
2022/01/03 10:32:30;;;;;;;18.45;4.47;;;;;;;9.63;82.54;101079.72;5017194;28;20033;-69
2022/01/03 10:35:13;;;;;;;25.33;4.60;;;;;;;9.62;82.79;101062.09;5034316;28;20034;-67
2022/01/03 10:37:40;;;;;;;20.35;4.13;;;;;;;9.66;81.75;101066.25;5022029;28;20029;-66
2022/01/03 10:40:29;;;;;;;22.65;4.43;;;;;;;9.67;82.15;101061.78;5037207;28;20064;-68
2022/01/03 10:43:12;;;;;;;20.30;5.20;;;;;;;9.69;81.93;101055.44;5041095;28;20064;-66
2022/01/03 10:45:39;;;;;;;24.65;4.20;;;;;;;9.70;81.92;101053.63;5042276;28;20041;-69
2022/01/03 10:48:30;;;;;;;22.10;4.38;;;;;;;9.75;82.20;101051.50;5046398;28;20036;-68
2022/01/03 10:50:56;;;;;;;21.30;4.47;;;;;;;9.75;81.50;101049.69;5040441;28;20037;-66
2022/01/03 10:53:37;;;;;;;24.30;4.93;;;;;;;9.77;81.92;101039.81;5031801;28;20037;-68
2022/01/03 10:56:28;;;;;;;20.65;4.18;;;;;;;9.83;81.83;101027.94;5032825;28;20084;-70
2022/01/03 10:58:56;;;;;;;17.88;3.75;;;;;;;9.85;80.84;101027.84;5040789;28;20025;-68
2022/01/03 11:01:23;;;;;;;22.67;4.38;;;;;;;9.86;81.30;101034.81;5037569;28;20044;-68
2022/01/03 11:03:49;;;;;;;20.83;4.10;;;;;;;9.87;81.44;101017.97;5035935;28;20036;-68
2022/01/03 11:06:24;;;;;;;20.42;4.35;;;;;;;9.90;80.93;101015.09;5038123;28;20025;-67
2022/01/03 11:11:42;;;;;;;21.42;4.43;;;;;;;9.96;80.76;101020.81;5033889;28;20129;-67
2022/01/03 11:14:09;;;;;;;22.73;4.18;;;;;;;9.99;80.92;101002.03;5029893;28;20021;-67
2022/01/03 11:16:42;;;;;;;27.30;5.68;;;;;;;10.09;80.59;101010.16;5039052;28;20021;-66
2022/01/03 11:19:08;;;;;;;22.88;4.13;;;;;;;10.14;80.15;101013.34;5030817;28;20117;-67
2022/01/03 11:21:36;;;;;;;18.45;3.95;;;;;;;10.17;80.18;100997.19;5042928;28;20437;-66
2022/01/03 11:24:09;;;;;;;21.40;4.47;;;;;;;10.18;79.78;100998.03;5047574;28;20033;-66
2022/01/03 11:26:40;;;;;;;20.80;4.75;;;;;;;10.19;80.22;100989.09;5043790;28;20394;-67
2022/01/03 11:29:06;;;;;;;19.65;3.63;;;;;;;10.25;79.49;100993.13;5024694;28;20032;-67
2022/01/03 11:31:33;;;;;;;21.52;4.63;;;;;;;10.28;79.59;101003.53;5019047;28;20029;-67
2022/01/03 11:34:00;;;;;;;19.55;4.50;;;;;;;10.28;79.46;101001.72;5030727;28;20523;-67
2022/01/03 11:36:26;;;;;;;23.73;4.20;;;;;;;10.27;78.98;100993.84;5037615;28;20075;-66
2022/01/03 11:38:54;;;;;;;23.80;4.65;;;;;;;10.25;78.97;100995.78;5028887;28;20033;-65
2022/01/03 11:41:20;;;;;;;20.67;4.90;;;;;;;10.21;78.96;100983.69;5033682;28;20656;-68
2022/01/03 11:43:45;;;;;;;18.38;5.20;;;;;;;10.21;78.77;100988.97;5035862;28;20029;-68